Hovedside
METAR-TAF:

METAR-TAF

Lufthavner :

Norrköping lufthavn

Norrköping, Sverige

breddegrad: 58-35N, lengdegrad: 016-09E, høyde over havet: 34 m

Gjeldene værobservasjon

Denne rapporten ble laget for 30 minutter siden, klokken 19:50 UTC
Vind 3 kt fra skiftende retning
Temperatur 3°C
Luftfuktighet 100%
Trykk 1017 hPa
Sikt: 6000 m
Overskyet i en høyde av 600 ft

METAR: ESSP 141950Z VRB03KT 6000 OVC006 03/03 Q1017

Tid: 21:20 (20:20 UTC)

Varsel

Denne rapporten ble laget for 2 timer og 50 minutter siden, klokken 17:30 UTC
Varsel gyldig fra 14. klokken 18 UTC til 14. klokken 22 UTC
Vind 2 kt fra skiftende retning
Sikt: 8000 m
Overskyet i en høyde av 400 ft
Sannsynlighet 40%
fra 14. klokken 18 UTC til 14. klokken 22 UTC
Sikt: 0500 m
Spredte skyer i en høyde av 400 ft
tåke

TAF: ESSP 141730Z 1418/1422 VRB02KT 8000 OVC004 PROB40 1418/1422 0500 FG SCT004

Værobservasjoner og værvarsel for over 4000 flyplasser (METAR- og TAF-rapporter).

Tilgjengelige stasjoner er representert av de røde og gule prikkene på kartet.

Hold musepekeren over prikken for å se navnet på stasjonen.

Klikk så for å se værobservasjoner og -varsler.

For å forandre kartet kan du klikke på den grønne knappen med svart kryss for å zoome inn, på den grønne knappen med strek for å zoome ut, eller på de grønne pilene for å se tilstøtende kart.


METAR-TAF: